Time;durP1;ratioP1;P1;durP2;ratioP2;P2;SDS_P1;SDS_P2;PMS_P1;PMS_P2;Temp;Humidity;BMP_temperature;BMP_pressure;BME280_temperature;BME280_humidity;BME280_pressure;Samples;Min_cycle;Max_cycle;Signal;HPM_P1;HPM_P2
2024/03/11 00:00:05;;;;;;;4.68;2.35;;;8.00;99.90;;;;;;4971001;28;20058;-72
2024/03/11 00:02:31;;;;;;;3.42;2.30;;;8.00;99.90;;;;;;4985577;28;20034;-72
2024/03/11 00:04:57;;;;;;;6.53;2.03;;;8.00;99.90;;;;;;4979660;28;20035;-72
2024/03/11 00:07:23;;;;;;;2.97;2.10;;;8.00;99.90;;;;;;4992014;28;20045;-73
2024/03/11 00:09:50;;;;;;;4.30;1.60;;;7.90;99.90;;;;;;4990681;28;20810;-73
2024/03/11 00:12:22;;;;;;;3.10;1.67;;;7.90;99.90;;;;;;5007347;28;20034;-73
2024/03/11 00:14:51;;;;;;;3.13;1.60;;;7.90;99.90;;;;;;4984193;28;20026;-73
2024/03/11 00:17:18;;;;;;;3.92;2.13;;;7.90;99.90;;;;;;4990728;28;20022;-73
2024/03/11 00:19:44;;;;;;;3.88;1.70;;;7.90;99.90;;;;;;4983369;28;20034;-73
2024/03/11 00:22:09;;;;;;;4.18;1.98;;;7.90;99.90;;;;;;4992088;28;20035;-73
2024/03/11 00:24:35;;;;;;;2.72;1.75;;;7.90;99.90;;;;;;4991698;28;20037;-73
2024/03/11 00:27:07;;;;;;;6.43;2.30;;;7.90;99.90;;;;;;4992540;28;20026;-73
2024/03/11 00:29:35;;;;;;;5.10;2.10;;;7.90;99.90;;;;;;4992061;28;20062;-73
2024/03/11 00:32:02;;;;;;;7.38;2.42;;;7.90;99.90;;;;;;4991150;28;20027;-74
2024/03/11 00:34:29;;;;;;;4.35;2.58;;;7.90;99.90;;;;;;4991857;28;20084;-73
2024/03/11 00:36:55;;;;;;;6.78;3.00;;;7.90;99.90;;;;;;5007143;28;20176;-73
2024/03/11 00:39:21;;;;;;;7.32;3.83;;;7.90;99.90;;;;;;4990658;28;20098;-73
2024/03/11 00:41:47;;;;;;;6.32;2.92;;;7.90;99.90;;;;;;4991165;28;20033;-73
2024/03/11 00:44:13;;;;;;;4.15;2.55;;;8.00;99.90;;;;;;4990439;28;20030;-73
2024/03/11 00:46:39;;;;;;;3.22;1.95;;;8.00;99.90;;;;;;4992039;28;20030;-73
2024/03/11 00:49:06;;;;;;;3.78;2.17;;;8.00;99.90;;;;;;4993297;28;20104;-74
2024/03/11 00:51:35;;;;;;;3.28;2.65;;;8.00;99.90;;;;;;4977923;28;20042;-73
2024/03/11 00:54:01;;;;;;;2.80;1.83;;;8.00;99.90;;;;;;5010027;28;20034;-73
2024/03/11 00:56:27;;;;;;;2.28;1.45;;;8.00;99.90;;;;;;4978347;28;20085;-74
2024/03/11 00:58:52;;;;;;;4.68;1.55;;;8.00;99.90;;;;;;5010752;28;20018;-73
2024/03/11 01:01:19;;;;;;;2.15;1.25;;;8.00;99.90;;;;;;4996224;28;20026;-73
2024/03/11 01:03:44;;;;;;;1.70;1.15;;;8.00;99.90;;;;;;4990726;28;20015;-74
2024/03/11 01:06:10;;;;;;;2.70;1.40;;;7.90;99.90;;;;;;4994596;28;20038;-73
2024/03/11 01:08:38;;;;;;;3.83;1.45;;;7.90;99.90;;;;;;4993663;28;20037;-73
2024/03/11 01:11:04;;;;;;;2.40;1.67;;;7.90;99.90;;;;;;5010942;28;20084;-74
2024/03/11 01:13:29;;;;;;;3.15;1.95;;;7.90;99.90;;;;;;4993824;28;20030;-74
2024/03/11 01:15:55;;;;;;;2.50;1.25;;;7.90;99.90;;;;;;4995113;28;20452;-74
2024/03/11 01:18:23;;;;;;;2.13;1.60;;;7.90;99.90;;;;;;4995170;28;20049;-73
2024/03/11 01:20:50;;;;;;;5.57;2.00;;;7.90;99.90;;;;;;4994167;28;20100;-73
2024/03/11 01:23:18;;;;;;;2.63;1.73;;;7.90;99.90;;;;;;4993457;28;20030;-74
2024/03/11 01:25:44;;;;;;;1.13;1.00;;;7.90;99.90;;;;;;4993750;28;20026;-74
2024/03/11 01:28:10;;;;;;;3.38;1.58;;;7.90;99.90;;;;;;4993546;28;20049;-74
2024/03/11 01:30:37;;;;;;;1.17;0.73;;;7.90;99.90;;;;;;4995315;28;20041;-73
2024/03/11 01:33:05;;;;;;;5.13;2.05;;;7.90;99.90;;;;;;4993252;23;20039;-73
2024/03/11 01:35:32;;;;;;;1.27;0.82;;;7.90;99.90;;;;;;4970495;28;20023;-73
2024/03/11 01:37:58;;;;;;;2.80;1.58;;;7.90;99.90;;;;;;4970090;28;20035;-74
2024/03/11 01:40:27;;;;;;;7.65;1.80;;;7.90;99.90;;;;;;4956169;28;20030;-73
2024/03/11 01:42:54;;;;;;;2.88;1.80;;;7.90;99.90;;;;;;4970234;28;20054;-73
2024/03/11 01:45:22;;;;;;;2.85;1.67;;;7.90;99.90;;;;;;4963056;28;20035;-73
2024/03/11 01:47:50;;;;;;;3.90;1.67;;;7.90;99.90;;;;;;4970087;28;20046;-73
2024/03/11 01:50:16;;;;;;;2.45;1.40;;;7.90;99.90;;;;;;4954622;28;20027;-73
2024/03/11 01:52:49;;;;;;;1.35;1.08;;;7.90;99.90;;;;;;4970111;28;20047;-73
2024/03/11 01:55:16;;;;;;;4.25;1.60;;;7.90;99.90;;;;;;4955817;28;20064;-73
2024/03/11 01:57:43;;;;;;;1.90;0.95;;;7.90;99.90;;;;;;4970117;28;20050;-73
2024/03/11 02:00:09;;;;;;;4.68;1.25;;;7.80;99.90;;;;;;4970385;28;20024;-73
2024/03/11 02:02:38;;;;;;;2.85;1.23;;;7.80;99.90;;;;;;4968454;28;20496;-71
2024/03/11 02:05:13;;;;;;;0.57;0.45;;;7.80;99.90;;;;;;4967023;28;20035;-73
2024/03/11 02:07:43;;;;;;;2.33;0.90;;;7.70;99.90;;;;;;4949737;28;20154;-74
2024/03/11 02:10:15;;;;;;;0.93;0.45;;;7.70;99.90;;;;;;4954234;28;20090;-74
2024/03/11 02:12:45;;;;;;;1.65;0.85;;;7.60;99.90;;;;;;4951438;28;20392;-73
2024/03/11 02:15:11;;;;;;;1.08;0.80;;;7.60;99.90;;;;;;4955004;28;20037;-73
2024/03/11 02:17:42;;;;;;;1.83;0.80;;;7.60;99.90;;;;;;4955229;28;20121;-73
2024/03/11 02:20:18;;;;;;;1.45;1.02;;;7.50;99.90;;;;;;4970006;28;20042;-73
2024/03/11 02:22:49;;;;;;;3.53;0.55;;;7.50;99.90;;;;;;4966689;28;20027;-73
2024/03/11 02:25:20;;;;;;;2.75;1.25;;;7.50;99.90;;;;;;4953855;28;20038;-73
2024/03/11 02:27:48;;;;;;;0.82;0.65;;;7.50;99.90;;;;;;4967386;28;20155;-73
2024/03/11 02:30:15;;;;;;;22.08;0.70;;;7.40;99.90;;;;;;4955330;28;20057;-74
2024/03/11 02:32:42;;;;;;;0.50;0.32;;;7.40;99.90;;;;;;4952495;28;20035;-72
2024/03/11 02:35:08;;;;;;;3.00;0.70;;;7.40;99.90;;;;;;4955146;28;20039;-73
2024/03/11 02:37:35;;;;;;;1.25;0.40;;;7.40;99.90;;;;;;4954645;28;20041;-73
2024/03/11 02:40:06;;;;;;;1.80;1.17;;;7.30;99.90;;;;;;4953950;28;20110;-73
2024/03/11 02:42:32;;;;;;;;;;;7.40;99.90;;;;;;4969264;28;20043;-75
2024/03/11 02:44:58;;;;;;;0.80;0.60;;;7.40;99.90;;;;;;4970283;28;19911;-73
2024/03/11 02:47:24;;;;;;;1.25;0.80;;;7.40;99.90;;;;;;4967076;28;20030;-73
2024/03/11 02:49:50;;;;;;;2.85;1.20;;;7.40;99.90;;;;;;4969969;28;20369;-73
2024/03/11 02:52:17;;;;;;;2.25;0.98;;;7.40;99.90;;;;;;4951134;28;20037;-73
2024/03/11 02:54:45;;;;;;;2.22;1.27;;;7.40;99.90;;;;;;4969173;28;20023;-73
2024/03/11 02:57:10;;;;;;;1.80;1.10;;;7.40;99.90;;;;;;4950573;28;20322;-74
2024/03/11 02:59:40;;;;;;;5.40;1.40;;;7.40;99.90;;;;;;4969977;28;20122;-74
2024/03/11 03:02:08;;;;;;;1.80;1.00;;;7.50;99.90;;;;;;4954312;28;20063;-74
2024/03/11 03:04:34;;;;;;;4.72;1.33;;;7.50;99.90;;;;;;4953601;28;20058;-74
2024/03/11 03:07:00;;;;;;;2.13;1.38;;;7.50;99.90;;;;;;4969023;28;20066;-74
2024/03/11 03:09:27;;;;;;;2.55;1.63;;;7.50;99.90;;;;;;4969432;28;20053;-74
2024/03/11 03:11:54;;;;;;;3.33;1.83;;;7.60;99.90;;;;;;4974247;28;20041;-74
2024/03/11 03:14:21;;;;;;;5.55;2.35;;;7.60;99.90;;;;;;4960353;28;20643;-74
2024/03/11 03:16:47;;;;;;;2.03;0.95;;;7.60;99.90;;;;;;4951595;28;20039;-74
2024/03/11 03:19:15;;;;;;;4.20;2.38;;;7.60;99.90;;;;;;4969152;28;20023;-74
2024/03/11 03:21:40;;;;;;;1.73;1.05;;;7.60;99.90;;;;;;4952570;28;20654;-74
2024/03/11 03:24:06;;;;;;;3.33;1.75;;;7.60;99.90;;;;;;4968645;28;20114;-74
2024/03/11 03:26:32;;;;;;;3.13;1.98;;;7.60;99.90;;;;;;4968669;28;20131;-74
2024/03/11 03:28:58;;;;;;;1.85;1.58;;;7.60;99.90;;;;;;4968897;28;20031;-74
2024/03/11 03:31:27;;;;;;;3.40;2.03;;;7.60;99.90;;;;;;4951784;28;20031;-74
2024/03/11 03:33:53;;;;;;;2.53;2.03;;;7.60;99.90;;;;;;4954041;28;20031;-74
2024/03/11 03:36:19;;;;;;;3.97;1.70;;;7.70;99.90;;;;;;4951589;28;20070;-74
2024/03/11 03:38:45;;;;;;;2.50;1.58;;;7.70;99.90;;;;;;4968844;28;20556;-74
2024/03/11 03:41:11;;;;;;;3.40;1.70;;;7.70;99.90;;;;;;4953164;28;20027;-74
2024/03/11 03:43:38;;;;;;;5.07;2.45;;;7.70;99.90;;;;;;4953644;28;20023;-75
2024/03/11 03:46:05;;;;;;;4.40;2.10;;;7.70;99.90;;;;;;4965804;28;20579;-74
2024/03/11 03:48:31;;;;;;;4.13;1.90;;;7.70;99.90;;;;;;4953448;28;20028;-74
2024/03/11 03:50:57;;;;;;;3.53;2.20;;;7.70;99.90;;;;;;4953399;28;20440;-74
2024/03/11 03:53:23;;;;;;;3.83;1.92;;;7.70;99.90;;;;;;4953600;28;20090;-74
2024/03/11 03:55:53;;;;;;;5.90;2.22;;;7.70;99.90;;;;;;4951222;28;20046;-74
2024/03/11 03:58:19;;;;;;;4.53;2.05;;;7.70;99.90;;;;;;4953325;28;20023;-74
2024/03/11 04:00:44;;;;;;;5.25;2.33;;;7.70;99.90;;;;;;4953348;28;20146;-74
2024/03/11 04:03:10;;;;;;;6.22;3.15;;;7.70;99.90;;;;;;4953483;28;20078;-74
2024/03/11 04:05:36;;;;;;;5.25;2.65;;;7.70;99.90;;;;;;4953429;28;20027;-74
2024/03/11 04:08:02;;;;;;;5.50;2.42;;;7.70;99.90;;;;;;4951026;28;20110;-74
2024/03/11 04:10:28;;;;;;;5.43;3.17;;;7.60;99.90;;;;;;4968601;28;20083;-74
2024/03/11 04:12:56;;;;;;;3.95;2.30;;;7.60;99.90;;;;;;4951391;28;20035;-76
2024/03/11 04:15:23;;;;;;;5.65;2.72;;;7.70;99.90;;;;;;4945698;28;20027;-74
2024/03/11 04:17:50;;;;;;;4.18;2.05;;;7.70;99.90;;;;;;4965470;28;20050;-74
2024/03/11 04:20:22;;;;;;;8.38;2.65;;;7.70;99.90;;;;;;4953600;28;20019;-74
2024/03/11 04:22:49;;;;;;;3.78;2.03;;;7.70;99.90;;;;;;4953051;28;20118;-74
2024/03/11 04:25:16;;;;;;;4.90;2.47;;;7.70;99.90;;;;;;4952297;28;20098;-74
2024/03/11 04:27:43;;;;;;;3.83;2.42;;;7.70;99.90;;;;;;4953324;28;20603;-74
2024/03/11 04:30:10;;;;;;;4.82;2.60;;;7.70;99.90;;;;;;4967990;28;20038;-74
2024/03/11 04:32:35;;;;;;;5.18;2.00;;;7.70;99.90;;;;;;4950917;28;20492;-74
2024/03/11 04:35:05;;;;;;;3.45;2.58;;;7.70;99.90;;;;;;4954153;28;20039;-74
2024/03/11 04:37:31;;;;;;;6.25;2.42;;;7.70;99.90;;;;;;4951049;28;20031;-73
2024/03/11 04:39:58;;;;;;;2.85;1.88;;;7.70;99.90;;;;;;4952999;28;20019;-75
2024/03/11 04:42:24;;;;;;;4.93;2.45;;;7.60;99.90;;;;;;4952694;28;20622;-74
2024/03/11 04:44:50;;;;;;;5.00;2.75;;;7.60;99.90;;;;;;4953228;28;20060;-74
2024/03/11 04:47:16;;;;;;;5.00;2.70;;;7.60;99.90;;;;;;4950684;28;20046;-74
2024/03/11 04:49:41;;;;;;;5.05;3.10;;;7.60;99.90;;;;;;4968095;28;20039;-74
2024/03/11 04:52:08;;;;;;;3.75;2.15;;;7.60;99.90;;;;;;4950366;28;20090;-74
2024/03/11 04:54:34;;;;;;;8.57;3.85;;;7.60;99.90;;;;;;4952946;28;20539;-74
2024/03/11 04:57:00;;;;;;;5.97;3.22;;;7.60;99.90;;;;;;4950726;28;20119;-74
2024/03/11 04:59:27;;;;;;;3.90;2.35;;;7.60;99.90;;;;;;4953280;28;20029;-74
2024/03/11 05:01:53;;;;;;;6.80;3.78;;;7.60;99.90;;;;;;4950992;28;20027;-75
2024/03/11 05:04:18;;;;;;;7.20;3.70;;;7.60;99.90;;;;;;4952618;28;20405;-74
2024/03/11 05:06:44;;;;;;;8.55;4.00;;;7.60;99.90;;;;;;4952742;28;20110;-74
2024/03/11 05:09:10;;;;;;;7.30;3.45;;;7.70;99.90;;;;;;4970267;28;20032;-75
2024/03/11 05:11:35;;;;;;;7.40;3.92;;;7.60;99.90;;;;;;4950025;28;20082;-71
2024/03/11 05:14:01;;;;;;;9.10;4.45;;;7.60;99.90;;;;;;4952549;28;20027;-71
2024/03/11 05:16:27;;;;;;;12.60;5.03;;;7.70;99.90;;;;;;4949710;28;20400;-73
2024/03/11 05:18:53;;;;;;;6.72;4.15;;;7.70;99.90;;;;;;4955614;28;20027;-73
2024/03/11 05:21:19;;;;;;;9.50;5.10;;;7.70;99.90;;;;;;4957441;28;20027;-74
2024/03/11 05:23:44;;;;;;;6.13;3.95;;;7.70;99.90;;;;;;4949910;28;20035;-73
2024/03/11 05:26:10;;;;;;;8.15;4.63;;;7.80;99.90;;;;;;4949268;28;20031;-74
2024/03/11 05:28:37;;;;;;;6.07;4.45;;;7.70;99.90;;;;;;4952434;28;20106;-73
2024/03/11 05:31:03;;;;;;;5.80;3.15;;;7.80;99.90;;;;;;4949815;28;20385;-73
2024/03/11 05:33:29;;;;;;;11.80;6.40;;;7.80;99.90;;;;;;4952318;28;20023;-74
2024/03/11 05:35:55;;;;;;;6.55;3.90;;;7.70;99.90;;;;;;4956873;28;20507;-74
2024/03/11 05:38:20;;;;;;;7.38;3.83;;;7.80;99.90;;;;;;4960962;28;20038;-73
2024/03/11 05:40:47;;;;;;;8.15;3.85;;;7.70;99.90;;;;;;4960170;28;20106;-74
2024/03/11 05:43:13;;;;;;;6.10;3.75;;;7.70;99.90;;;;;;4975757;28;20034;-75
2024/03/11 05:45:39;;;;;;;5.60;3.20;;;7.80;99.90;;;;;;4946120;28;20117;-73
2024/03/11 05:48:06;;;;;;;8.40;3.70;;;7.80;99.90;;;;;;4974554;28;20101;-73
2024/03/11 05:50:32;;;;;;;5.43;3.78;;;7.80;99.90;;;;;;4963711;28;20035;-73
2024/03/11 05:52:58;;;;;;;5.43;3.35;;;7.80;99.90;;;;;;4974590;28;20066;-73
2024/03/11 05:55:32;;;;;;;6.85;2.40;;;7.80;99.90;;;;;;4977803;28;20533;-72
2024/03/11 05:58:08;;;;;;;5.18;2.92;;;7.80;99.90;;;;;;4960636;28;20022;-73
2024/03/11 06:00:36;;;;;;;6.35;3.38;;;7.80;99.90;;;;;;4964067;28;20027;-72
2024/03/11 06:03:03;;;;;;;7.13;2.70;;;7.80;99.90;;;;;;4974005;28;20031;-71
2024/03/11 06:05:29;;;;;;;8.82;3.10;;;7.80;99.90;;;;;;4979294;28;20042;-70
2024/03/11 06:07:54;;;;;;;4.15;2.35;;;7.80;99.90;;;;;;4946613;28;20031;-71
2024/03/11 06:10:20;;;;;;;4.30;2.63;;;7.80;99.90;;;;;;4974013;28;20551;-72
2024/03/11 06:12:46;;;;;;;8.07;2.78;;;7.80;99.90;;;;;;4967061;28;20502;-71
2024/03/11 06:15:12;;;;;;;3.92;2.47;;;7.80;99.90;;;;;;4954360;28;20039;-71
2024/03/11 06:17:37;;;;;;;2.83;2.20;;;7.80;99.90;;;;;;4951918;28;20039;-71
2024/03/11 06:20:09;;;;;;;3.17;1.80;;;7.80;99.90;;;;;;4952312;28;20019;-71
2024/03/11 06:22:35;;;;;;;6.65;2.88;;;7.80;99.90;;;;;;4951848;28;20042;-70
2024/03/11 06:25:04;;;;;;;3.65;2.25;;;7.80;99.90;;;;;;4958483;28;20054;-70
2024/03/11 06:27:29;;;;;;;3.38;1.73;;;7.80;99.90;;;;;;4966478;28;20536;-72
2024/03/11 06:29:56;;;;;;;5.70;2.08;;;7.80;99.90;;;;;;4950256;28;20126;-70
2024/03/11 06:32:30;;;;;;;2.25;1.67;;;7.80;99.90;;;;;;4961619;28;20111;-70
2024/03/11 06:34:57;;;;;;;5.95;2.78;;;7.80;99.90;;;;;;4969638;28;20054;-70
2024/03/11 06:37:23;;;;;;;5.03;2.50;;;7.80;99.90;;;;;;4942222;28;20042;-70
2024/03/11 06:39:49;;;;;;;4.88;1.90;;;7.80;99.90;;;;;;4954728;28;20388;-70
2024/03/11 06:42:14;;;;;;;5.38;2.33;;;7.80;99.90;;;;;;4965210;28;20050;-70
2024/03/11 06:44:40;;;;;;;3.65;2.00;;;7.80;99.90;;;;;;4969085;28;20391;-70
2024/03/11 06:47:08;;;;;;;4.88;2.30;;;7.80;99.90;;;;;;4950696;28;20036;-70
2024/03/11 06:49:34;;;;;;;6.35;2.40;;;7.80;99.90;;;;;;4954569;28;20439;-74
2024/03/11 06:52:05;;;;;;;4.40;2.38;;;7.80;99.90;;;;;;4965305;28;20130;-72
2024/03/11 06:54:31;;;;;;;;;;;7.90;99.90;;;;;;4969061;28;20114;-71
2024/03/11 06:56:57;;;;;;;11.45;2.33;;;7.90;99.90;;;;;;4950783;28;20035;-71
2024/03/11 06:59:22;;;;;;;2.67;1.88;;;8.00;99.90;;;;;;4954869;28;20030;-71
2024/03/11 07:01:48;;;;;;;4.25;2.67;;;8.10;99.90;;;;;;4966531;28;20027;-71
2024/03/11 07:04:14;;;;;;;3.95;2.35;;;8.10;99.90;;;;;;4968105;28;20031;-71
2024/03/11 07:06:39;;;;;;;3.33;2.15;;;8.10;99.90;;;;;;4952820;28;20079;-70
2024/03/11 07:09:07;;;;;;;5.63;2.58;;;8.20;99.90;;;;;;4952095;29;20043;-71
2024/03/11 07:11:33;;;;;;;3.67;2.08;;;8.20;99.90;;;;;;4968135;28;20447;-70
2024/03/11 07:13:58;;;;;;;2.50;1.85;;;8.10;99.90;;;;;;4950025;28;20127;-70
2024/03/11 07:16:26;;;;;;;2.88;1.48;;;8.20;99.90;;;;;;4973702;28;20023;-69
2024/03/11 07:18:54;;;;;;;3.00;1.15;;;8.30;99.90;;;;;;4965214;28;20035;-69
2024/03/11 07:21:27;;;;;;;3.22;1.48;;;8.30;99.90;;;;;;4951898;28;20038;-69
2024/03/11 07:23:53;;;;;;;2.10;1.35;;;8.40;99.90;;;;;;4964396;28;20038;-69
2024/03/11 07:26:18;;;;;;;2.00;1.08;;;8.50;99.90;;;;;;4951349;28;20035;-69
2024/03/11 07:28:45;;;;;;;3.80;1.23;;;8.50;99.90;;;;;;4949685;28;20034;-69
2024/03/11 07:31:11;;;;;;;1.88;1.45;;;8.70;99.90;;;;;;4967867;28;20031;-68
2024/03/11 07:33:39;;;;;;;2.28;1.27;;;8.60;99.90;;;;;;4948047;28;20038;-68
2024/03/11 07:36:07;;;;;;;2.80;1.80;;;8.70;99.90;;;;;;4953363;28;20035;-70
2024/03/11 07:38:32;;;;;;;7.80;1.92;;;8.80;99.90;;;;;;4962521;28;20035;-71
2024/03/11 07:40:59;;;;;;;2.63;1.30;;;8.90;99.90;;;;;;4951179;28;20023;-71
2024/03/11 07:43:25;;;;;;;8.75;1.88;;;9.00;99.90;;;;;;4952605;28;20030;-71
2024/03/11 07:45:51;;;;;;;2.20;1.30;;;9.00;99.90;;;;;;4948728;28;20269;-71
2024/03/11 07:48:18;;;;;;;2.97;1.60;;;9.10;99.90;;;;;;4949531;28;20043;-71
2024/03/11 07:50:45;;;;;;;3.00;1.65;;;9.30;99.90;;;;;;4966380;28;20217;-71
2024/03/11 07:53:13;;;;;;;2.35;1.42;;;9.30;99.90;;;;;;4943731;28;20031;-71
2024/03/11 07:55:40;;;;;;;2.22;1.20;;;9.30;99.90;;;;;;4967905;28;20039;-71
2024/03/11 07:58:06;;;;;;;3.90;1.92;;;9.30;99.90;;;;;;4944853;28;20417;-71
2024/03/11 08:00:36;;;;;;;4.47;1.25;;;9.30;99.90;;;;;;4967093;28;20062;-71
2024/03/11 08:03:03;;;;;;;2.65;1.92;;;9.40;99.90;;;;;;4957951;28;20026;-71
2024/03/11 08:05:29;;;;;;;2.58;1.33;;;9.50;99.90;;;;;;4964760;28;20031;-71
2024/03/11 08:07:56;;;;;;;2.47;1.45;;;9.60;99.90;;;;;;4944685;28;20098;-71
2024/03/11 08:10:25;;;;;;;3.60;1.48;;;9.50;99.90;;;;;;4968192;28;20039;-71
2024/03/11 08:12:51;;;;;;;5.10;1.60;;;9.50;99.90;;;;;;4945743;28;20027;-71
2024/03/11 08:15:17;;;;;;;2.60;1.33;;;9.50;99.90;;;;;;4967852;28;20035;-71
2024/03/11 08:17:49;;;;;;;3.13;1.23;;;9.50;99.90;;;;;;4960870;28;20457;-71
2024/03/11 08:20:17;;;;;;;2.10;1.33;;;9.60;99.90;;;;;;4966639;28;20035;-71
2024/03/11 08:22:56;;;;;;;2.70;1.48;;;9.60;99.90;;;;;;4944419;28;20488;-71
2024/03/11 08:25:25;;;;;;;4.70;1.27;;;9.60;99.90;;;;;;4969856;28;20039;-71
2024/03/11 08:27:52;;;;;;;1.60;1.02;;;9.60;99.90;;;;;;4950559;28;20436;-71
2024/03/11 08:30:19;;;;;;;2.53;1.17;;;9.70;99.90;;;;;;4967922;28;20027;-70
2024/03/11 08:32:47;;;;;;;1.92;1.10;;;9.70;99.90;;;;;;4946237;28;20027;-71
2024/03/11 08:35:25;;;;;;;2.58;1.27;;;9.80;99.90;;;;;;4952701;28;20036;-71
2024/03/11 08:37:52;;;;;;;1.88;1.33;;;9.80;99.90;;;;;;4959688;28;20023;-70
2024/03/11 08:40:22;;;;;;;2.10;1.08;;;9.80;99.90;;;;;;4967877;28;20020;-70
2024/03/11 08:42:48;;;;;;;1.98;1.27;;;9.80;99.90;;;;;;4945789;28;20058;-71
2024/03/11 08:45:22;;;;;;;2.55;1.15;;;9.90;99.90;;;;;;4975240;28;20437;-71
2024/03/11 08:47:49;;;;;;;2.45;1.50;;;10.00;99.90;;;;;;4946355;28;20038;-71
2024/03/11 08:50:21;;;;;;;5.13;1.15;;;10.00;99.90;;;;;;4953065;28;20258;-71
2024/03/11 08:52:47;;;;;;;1.90;1.25;;;10.10;99.90;;;;;;4962747;28;20648;-71
2024/03/11 08:55:15;;;;;;;2.08;1.20;;;10.10;99.90;;;;;;4955602;28;20550;-70
2024/03/11 08:57:41;;;;;;;1.67;1.00;;;10.20;99.90;;;;;;4960652;28;20027;-71
2024/03/11 09:00:11;;;;;;;2.83;1.17;;;10.20;99.90;;;;;;4967651;28;20180;-71
2024/03/11 09:02:39;;;;;;;2.90;1.40;;;10.30;99.90;;;;;;4945717;28;20043;-71
2024/03/11 09:05:12;;;;;;;2.08;1.10;;;10.30;99.90;;;;;;4967965;28;20027;-71
2024/03/11 09:07:40;;;;;;;1.65;0.80;;;10.30;99.90;;;;;;4945744;28;20102;-69
2024/03/11 09:10:07;;;;;;;1.80;1.20;;;10.40;99.90;;;;;;4969033;28;20035;-71
2024/03/11 09:12:34;;;;;;;5.13;0.88;;;10.60;99.90;;;;;;4963031;28;20114;-70
2024/03/11 09:15:00;;;;;;;8.00;1.42;;;10.60;99.90;;;;;;4956820;28;20034;-71
2024/03/11 09:17:26;;;;;;;0.98;0.80;;;10.70;99.90;;;;;;4971047;28;20035;-71
2024/03/11 09:19:54;;;;;;;2.67;1.05;;;10.90;99.90;;;;;;4971512;28;20159;-71
2024/03/11 09:22:21;;;;;;;3.33;1.42;;;10.90;99.90;;;;;;4949177;28;20027;-71
2024/03/11 09:24:47;;;;;;;4.30;1.00;;;10.90;99.90;;;;;;4971312;28;20069;-71
2024/03/11 09:27:13;;;;;;;2.38;1.05;;;11.30;99.90;;;;;;4955917;28;20062;-71
2024/03/11 09:29:39;;;;;;;1.15;1.00;;;11.20;99.90;;;;;;4956482;28;20054;-71
2024/03/11 09:32:05;;;;;;;1.52;0.88;;;11.20;99.90;;;;;;4948245;28;20027;-71
2024/03/11 09:34:31;;;;;;;1.80;1.20;;;11.30;99.90;;;;;;4971243;28;20031;-70
2024/03/11 09:36:57;;;;;;;1.23;0.85;;;11.30;99.90;;;;;;4968608;28;20039;-71
2024/03/11 09:39:23;;;;;;;3.83;1.10;;;11.40;99.90;;;;;;4965501;28;20027;-70
2024/03/11 09:41:49;;;;;;;1.50;0.90;;;11.30;99.90;;;;;;4953993;28;20386;-71
2024/03/11 09:44:20;;;;;;;1.13;0.88;;;11.50;99.90;;;;;;4955637;28;20125;-71
2024/03/11 09:46:59;;;;;;;1.27;0.77;;;11.50;99.90;;;;;;4968668;28;20042;-71
2024/03/11 09:49:24;;;;;;;1.13;0.70;;;11.70;99.90;;;;;;4954515;28;20042;-71
2024/03/11 09:51:55;;;;;;;1.10;0.93;;;11.70;99.90;;;;;;4953201;28;20031;-71
2024/03/11 09:54:22;;;;;;;4.37;1.50;;;11.80;99.90;;;;;;4969494;28;20039;-71
2024/03/11 09:56:51;;;;;;;1.10;0.80;;;11.90;99.90;;;;;;4967312;28;20042;-70
2024/03/11 09:59:20;;;;;;;1.73;0.80;;;12.00;99.90;;;;;;4938605;28;20031;-71
2024/03/11 10:01:52;;;;;;;1.42;0.80;;;12.30;99.90;;;;;;4952828;28;20042;-70
2024/03/11 10:04:24;;;;;;;4.97;1.25;;;12.40;99.90;;;;;;4938383;29;20095;-70
2024/03/11 10:07:09;;;;;;;0.95;0.73;;;12.30;99.90;;;;;;4953234;28;20027;-69
2024/03/11 10:09:44;;;;;;;1.63;0.90;;;12.00;99.90;;;;;;4955754;28;20031;-69
2024/03/11 10:12:14;;;;;;;0.75;0.60;;;11.90;99.90;;;;;;4967275;28;20043;-69
2024/03/11 10:14:42;;;;;;;2.00;1.00;;;11.60;99.90;;;;;;4969901;28;20030;-69
2024/03/11 10:17:26;;;;;;;1.58;0.63;;;11.80;99.90;;;;;;4967389;28;20759;-69
2024/03/11 10:19:54;;;;;;;1.40;0.80;;;11.80;99.90;;;;;;4955424;28;20531;-69
2024/03/11 10:22:23;;;;;;;1.80;0.93;;;11.90;99.90;;;;;;4966932;28;20035;-69
2024/03/11 10:24:56;;;;;;;1.90;0.82;;;12.30;99.90;;;;;;4954670;28;20023;-69
2024/03/11 10:27:40;;;;;;;0.98;0.73;;;12.60;99.90;;;;;;4952757;28;20123;-70
2024/03/11 10:30:25;;;;;;;2.17;0.60;;;12.70;99.90;;;;;;4968505;28;20035;-70
2024/03/11 10:32:56;;;;;;;1.33;0.70;;;12.90;99.90;;;;;;4967003;28;20372;-70
2024/03/11 10:35:26;;;;;;;3.03;1.00;;;12.60;99.90;;;;;;4969012;28;20043;-71
2024/03/11 10:38:05;;;;;;;2.97;1.00;;;12.80;99.90;;;;;;4967920;28;20027;-71
2024/03/11 10:40:32;;;;;;;1.27;0.70;;;12.70;99.90;;;;;;4946920;28;20023;-70
2024/03/11 10:43:23;;;;;;;1.70;0.70;;;13.20;99.90;;;;;;4954267;28;20035;-71
2024/03/11 10:45:49;;;;;;;2.15;0.90;;;13.30;99.90;;;;;;4963983;28;20090;-71
2024/03/11 10:48:15;;;;;;;2.17;1.02;;;13.60;99.90;;;;;;4968594;28;20047;-70
2024/03/11 10:50:42;;;;;;;1.80;0.82;;;13.60;99.90;;;;;;4969491;28;20027;-71
2024/03/11 10:53:21;;;;;;;1.00;0.70;;;13.80;99.90;;;;;;4957684;28;20042;-70
2024/03/11 10:55:58;;;;;;;4.50;0.77;;;14.00;99.90;;;;;;4953511;28;20027;-70
2024/03/11 10:58:28;;;;;;;1.92;1.00;;;14.20;99.90;;;;;;4968666;28;20019;-70
2024/03/11 11:01:03;;;;;;;1.77;0.85;;;14.10;99.90;;;;;;4967575;28;20113;-71
2024/03/11 11:03:31;;;;;;;1.30;0.88;;;14.10;99.90;;;;;;4946824;28;20465;-70
2024/03/11 11:06:09;;;;;;;3.40;0.82;;;13.50;99.90;;;;;;4966756;28;20093;-70
2024/03/11 11:08:42;;;;;;;3.67;0.90;;;13.00;99.90;;;;;;4961346;28;20023;-71
2024/03/11 11:11:17;;;;;;;1.17;0.70;;;13.60;99.90;;;;;;4965259;28;20036;-71
2024/03/11 11:13:46;;;;;;;0.73;0.50;;;14.40;99.90;;;;;;4953889;28;20368;-71
2024/03/11 11:16:13;;;;;;;2.15;0.52;;;13.80;99.90;;;;;;4968436;28;20089;-71
2024/03/11 11:18:40;;;;;;;4.57;1.00;;;13.30;99.90;;;;;;4956843;28;20057;-71
2024/03/11 11:21:10;;;;;;;1.50;0.52;;;13.40;99.90;;;;;;4965509;28;20082;-69
2024/03/11 11:23:37;;;;;;;6.47;0.90;;;13.60;99.90;;;;;;4967956;28;20027;-69
2024/03/11 11:26:04;;;;;;;1.35;0.88;;;13.90;99.90;;;;;;4966245;28;20031;-70
2024/03/11 11:28:37;;;;;;;1.33;0.70;;;14.40;99.90;;;;;;4969746;28;20034;-70
2024/03/11 11:31:15;;;;;;;1.35;0.85;;;14.80;99.90;;;;;;4951703;28;20481;-71
2024/03/11 11:33:58;;;;;;;1.58;1.13;;;15.30;99.90;;;;;;4969228;28;20042;-69
2024/03/11 11:36:32;;;;;;;1.92;0.73;;;15.00;99.90;;;;;;4966124;28;20027;-70
2024/03/11 11:39:20;;;;;;;3.50;0.70;;;15.30;99.90;;;;;;4948792;28;20027;-71
2024/03/11 11:41:50;;;;;;;0.77;0.50;;;15.30;99.90;;;;;;4963739;28;20358;-72
2024/03/11 11:44:38;;;;;;;1.05;0.70;;;15.30;99.90;;;;;;4966621;28;20082;-71
2024/03/11 11:47:13;;;;;;;1.15;0.52;;;15.80;99.20;;;;;;4942941;28;20444;-70
2024/03/11 11:49:42;;;;;;;0.45;0.45;;;17.10;98.00;;;;;;4953199;28;20488;-70
2024/03/11 11:52:14;;;;;;;1.50;0.98;;;17.30;93.80;;;;;;4963868;28;20035;-71
2024/03/11 11:54:40;;;;;;;1.17;0.55;;;18.60;90.30;;;;;;4967298;28;20452;-70
2024/03/11 11:57:11;;;;;;;2.60;0.65;;;18.50;90.30;;;;;;4950014;29;20583;-70
2024/03/11 11:59:38;;;;;;;1.23;0.63;;;17.80;90.90;;;;;;4952647;28;20054;-70
2024/03/11 12:02:08;;;;;;;1.23;0.50;;;17.20;92.50;;;;;;4951528;28;20106;-70
2024/03/11 12:04:34;;;;;;;2.03;0.90;;;16.50;94.50;;;;;;4952471;28;20106;-70
2024/03/11 12:07:00;;;;;;;0.80;0.40;;;16.70;94.60;;;;;;4963004;28;20118;-70
2024/03/11 12:09:26;;;;;;;2.47;0.63;;;17.00;93.00;;;;;;4961332;28;20640;-70
2024/03/11 12:11:59;;;;;;;0.50;0.40;;;16.40;92.40;;;;;;4951786;28;20069;-70
2024/03/11 12:14:25;;;;;;;4.95;1.27;;;15.40;95.20;;;;;;4950894;28;20496;-70
2024/03/11 12:17:07;;;;;;;0.82;0.60;;;15.00;95.70;;;;;;4949761;28;20019;-70
2024/03/11 12:19:34;;;;;;;3.00;1.05;;;14.70;98.20;;;;;;4952099;28;20038;-70
2024/03/11 12:22:02;;;;;;;1.80;0.82;;;14.70;99.50;;;;;;4951726;28;20162;-70
2024/03/11 12:24:27;;;;;;;1.30;0.75;;;14.60;99.90;;;;;;4949404;28;20031;-69
2024/03/11 12:26:55;;;;;;;0.75;0.50;;;14.00;99.90;;;;;;4966267;28;20752;-69
2024/03/11 12:29:22;;;;;;;1.02;0.43;;;14.10;99.80;;;;;;4950730;28;20031;-70
2024/03/11 12:31:56;;;;;;;3.38;0.43;;;14.70;98.40;;;;;;4951885;28;20035;-70
2024/03/11 12:34:26;;;;;;;1.15;0.40;;;14.00;99.60;;;;;;4966533;28;20042;-70
2024/03/11 12:36:54;;;;;;;0.40;0.30;;;13.80;99.60;;;;;;4965071;28;20031;-70
2024/03/11 12:39:26;;;;;;;2.28;0.70;;;13.60;99.90;;;;;;4952119;28;20032;-70
2024/03/11 12:41:53;;;;;;;0.98;0.40;;;13.70;99.90;;;;;;4951146;28;20492;-70
2024/03/11 12:44:19;;;;;;;0.77;0.40;;;13.60;99.90;;;;;;4950352;28;20361;-70
2024/03/11 12:46:50;;;;;;;2.05;0.40;;;14.00;99.50;;;;;;4969853;28;20035;-71
2024/03/11 12:49:19;;;;;;;0.20;0.20;;;13.80;99.90;;;;;;4955800;28;20093;-70
2024/03/11 12:51:47;;;;;;;0.52;0.45;;;13.90;99.90;;;;;;4969743;28;20515;-71
2024/03/11 12:54:28;;;;;;;2.90;0.95;;;14.40;99.00;;;;;;4955718;28;20086;-71
2024/03/11 12:57:17;;;;;;;0.95;0.40;;;16.80;94.30;;;;;;4969479;28;20039;-70
2024/03/11 13:00:00;;;;;;;1.38;0.50;;;18.70;87.10;;;;;;4952502;28;20038;-70